Time;durP1;ratioP1;P1;durP2;ratioP2;P2;SDS_P1;SDS_P2;PMS_P1;PMS_P2;Temp;Humidity;BMP_temperature;BMP_pressure;BME280_temperature;BME280_humidity;BME280_pressure;Samples;Min_cycle;Max_cycle;Signal;HPM_P1;HPM_P2
2022/04/03 00:00:42;;;;;;;13.93;7.65;;;;;;;;;;7358227;19;20006;-84
2022/04/03 00:03:08;;;;;;;13.93;6.90;;;;;;;;;;7367177;19;20022;-85
2022/04/03 00:05:37;;;;;;;14.23;6.90;;;;;;;;;;7368436;19;20128;-87
2022/04/03 00:08:02;;;;;;;15.07;7.22;;;;;;;;;;7371091;19;20018;-84
2022/04/03 00:10:28;;;;;;;13.07;7.07;;;;;;;;;;7357829;19;20024;-88
2022/04/03 00:12:53;;;;;;;15.90;7.57;;;;;;;;;;7337950;19;20647;-84
2022/04/03 00:15:18;;;;;;;16.17;7.15;;;;;;;;;;7352408;19;20002;-88
2022/04/03 00:17:44;;;;;;;15.60;6.63;;;;;;;;;;7372157;19;20021;-88
2022/04/03 00:20:11;;;;;;;17.33;6.88;;;;;;;;;;7368650;19;19995;-88
2022/04/03 00:22:36;;;;;;;14.25;6.97;;;;;;;;;;7372857;19;20007;-89
2022/04/03 00:25:02;;;;;;;16.80;6.72;;;;;;;;;;7376727;19;20018;-85
2022/04/03 00:27:27;;;;;;;14.93;6.97;;;;;;;;;;7373286;19;20003;-86
2022/04/03 00:29:52;;;;;;;13.43;6.75;;;;;;;;;;7352480;19;20007;-85
2022/04/03 00:32:17;;;;;;;13.70;6.95;;;;;;;;;;7375991;19;20011;-83
2022/04/03 00:34:43;;;;;;;15.80;7.45;;;;;;;;;;7361206;19;20349;-87
2022/04/03 00:37:08;;;;;;;14.00;7.53;;;;;;;;;;7371401;19;20014;-89
2022/04/03 00:39:33;;;;;;;18.30;8.35;;;;;;;;;;7367518;19;19999;-81
2022/04/03 00:41:58;;;;;;;13.35;7.32;;;;;;;;;;7377320;19;20014;-83
2022/04/03 00:44:24;;;;;;;14.00;7.15;;;;;;;;;;7356161;19;20003;-85
2022/04/03 00:46:49;;;;;;;16.52;7.55;;;;;;;;;;7375169;19;20018;-85
2022/04/03 00:49:14;;;;;;;13.70;7.72;;;;;;;;;;7372628;19;20010;-91
2022/04/03 00:51:40;;;;;;;17.23;7.82;;;;;;;;;;7373888;19;20022;-86
2022/04/03 00:54:05;;;;;;;15.07;7.80;;;;;;;;;;7367448;19;20111;-87
2022/04/03 00:56:32;;;;;;;15.00;7.90;;;;;;;;;;7370568;19;20011;-86
2022/04/03 00:58:57;;;;;;;13.68;7.88;;;;;;;;;;7354406;19;19999;-86
2022/04/03 01:01:22;;;;;;;15.60;7.32;;;;;;;;;;7372210;19;20648;-88
2022/04/03 01:03:48;;;;;;;15.02;7.82;;;;;;;;;;7330036;19;20724;-86
2022/04/03 01:06:13;;;;;;;13.07;7.53;;;;;;;;;;7372331;19;20007;-88
2022/04/03 01:08:39;;;;;;;16.48;7.53;;;;;;;;;;7365857;19;19994;-87
2022/04/03 01:11:04;;;;;;;14.75;7.43;;;;;;;;;;7369714;19;20710;-85
2022/04/03 01:13:29;;;;;;;18.52;7.80;;;;;;;;;;7353970;19;20102;-86
2022/04/03 01:15:56;;;;;;;15.02;8.18;;;;;;;;;;7363183;19;20477;-85
2022/04/03 01:18:23;;;;;;;15.20;7.50;;;;;;;;;;7375880;19;20030;-84
2022/04/03 01:20:48;;;;;;;18.85;7.43;;;;;;;;;;7378155;19;20010;-87
2022/04/03 01:23:13;;;;;;;16.60;7.70;;;;;;;;;;7381174;19;20010;-82
2022/04/03 01:25:38;;;;;;;14.30;7.90;;;;;;;;;;7361969;19;20426;-86
2022/04/03 01:28:04;;;;;;;17.17;7.60;;;;;;;;;;7369040;19;20474;-82
2022/04/03 01:30:29;;;;;;;18.63;8.07;;;;;;;;;;7361977;19;20388;-87
2022/04/03 01:32:55;;;;;;;18.98;7.53;;;;;;;;;;7378609;19;20011;-89
2022/04/03 01:35:20;;;;;;;14.27;7.30;;;;;;;;;;7366750;19;20010;-83
2022/04/03 01:37:45;;;;;;;15.75;7.53;;;;;;;;;;7380804;19;20026;-88
2022/04/03 01:40:12;;;;;;;15.15;7.00;;;;;;;;;;7372724;19;19994;-88
2022/04/03 01:42:37;;;;;;;12.55;7.15;;;;;;;;;;7363654;19;20018;-87
2022/04/03 01:45:02;;;;;;;14.50;7.70;;;;;;;;;;7368567;19;20006;-83
2022/04/03 01:47:27;;;;;;;14.63;8.18;;;;;;;;;;7378795;19;20007;-86
2022/04/03 01:49:53;;;;;;;15.57;8.00;;;;;;;;;;7379030;19;20003;-85
2022/04/03 01:52:18;;;;;;;14.23;7.82;;;;;;;;;;7367560;19;20035;-86
2022/04/03 01:54:43;;;;;;;16.42;7.10;;;;;;;;;;7355239;19;20058;-83
2022/04/03 01:57:08;;;;;;;13.65;7.03;;;;;;;;;;7374903;19;20015;-85
2022/04/03 01:59:34;;;;;;;13.00;7.47;;;;;;;;;;7364528;19;20915;-87
2022/04/03 02:01:59;;;;;;;13.75;6.78;;;;;;;;;;7342232;19;20006;-83
2022/04/03 02:04:24;;;;;;;20.73;7.70;;;;;;;;;;7367958;19;20526;-84
2022/04/03 02:06:51;;;;;;;14.30;7.45;;;;;;;;;;7377659;19;20014;-84
2022/04/03 02:09:16;;;;;;;15.35;7.57;;;;;;;;;;7352117;19;20035;-84
2022/04/03 02:11:42;;;;;;;14.27;7.57;;;;;;;;;;7382112;19;20014;-89
2022/04/03 02:14:07;;;;;;;16.65;7.47;;;;;;;;;;7353774;19;20010;-84
2022/04/03 02:16:32;;;;;;;13.32;7.32;;;;;;;;;;7372512;19;20011;-86
2022/04/03 02:18:57;;;;;;;13.95;7.57;;;;;;;;;;7378098;19;20021;-82
2022/04/03 02:21:23;;;;;;;14.52;7.82;;;;;;;;;;7368046;19;20040;-86
2022/04/03 02:23:48;;;;;;;14.23;8.15;;;;;;;;;;7371453;19;20006;-87
2022/04/03 02:26:13;;;;;;;18.23;8.32;;;;;;;;;;7360533;19;20011;-84
2022/04/03 02:28:39;;;;;;;15.27;7.95;;;;;;;;;;7359259;19;20014;-85
2022/04/03 02:31:04;;;;;;;13.02;7.65;;;;;;;;;;7373133;19;20652;-83
2022/04/03 02:33:29;;;;;;;12.68;7.38;;;;;;;;;;7369984;19;20339;-83
2022/04/03 02:35:54;;;;;;;17.90;8.02;;;;;;;;;;7368785;19;20010;-85
2022/04/03 02:38:19;;;;;;;15.35;7.88;;;;;;;;;;7379896;19;20054;-86
2022/04/03 02:40:45;;;;;;;14.20;7.95;;;;;;;;;;7363300;19;20348;-85
2022/04/03 02:43:10;;;;;;;15.10;7.32;;;;;;;;;;7360361;19;20018;-88
2022/04/03 02:45:39;;;;;;;14.38;7.53;;;;;;;;;;7369420;19;19995;-91
2022/04/03 02:48:19;;;;;;;13.48;8.15;;;;;;;;;;7350739;19;20033;-84
2022/04/03 02:50:44;;;;;;;17.13;7.43;;;;;;;;;;7372320;19;20569;-87
2022/04/03 02:53:09;;;;;;;17.80;8.48;;;;;;;;;;7367118;19;20021;-83
2022/04/03 02:55:35;;;;;;;14.30;7.97;;;;;;;;;;7378665;19;20015;-88
2022/04/03 02:58:01;;;;;;;14.10;8.40;;;;;;;;;;7368669;19;20007;-88
2022/04/03 03:00:26;;;;;;;14.38;8.18;;;;;;;;;;7378805;19;20073;-81
2022/04/03 03:02:51;;;;;;;16.33;8.75;;;;;;;;;;7376864;19;20005;-89
2022/04/03 03:05:17;;;;;;;15.30;7.60;;;;;;;;;;7376245;19;20036;-84
2022/04/03 03:07:45;;;;;;;17.83;8.57;;;;;;;;;;7362279;19;20003;-84
2022/04/03 03:10:13;;;;;;;14.80;8.68;;;;;;;;;;7379917;19;20002;-83
2022/04/03 03:12:38;;;;;;;18.60;8.13;;;;;;;;;;7371903;19;20031;-86
2022/04/03 03:15:04;;;;;;;15.35;8.20;;;;;;;;;;7370743;19;20011;-86
2022/04/03 03:17:29;;;;;;;16.95;9.13;;;;;;;;;;7373109;19;20040;-85
2022/04/03 03:19:54;;;;;;;16.85;8.80;;;;;;;;;;7366996;19;20628;-84
2022/04/03 03:22:20;;;;;;;15.02;8.52;;;;;;;;;;7377085;19;20003;-84
2022/04/03 03:24:45;;;;;;;14.13;7.85;;;;;;;;;;7375819;19;20030;-84
2022/04/03 03:27:10;;;;;;;13.48;7.53;;;;;;;;;;7339396;19;20006;-89
2022/04/03 03:29:35;;;;;;;16.83;9.20;;;;;;;;;;7351169;19;20006;-84
2022/04/03 03:32:01;;;;;;;15.40;8.73;;;;;;;;;;7362555;19;20002;-86
2022/04/03 03:34:26;;;;;;;18.27;8.45;;;;;;;;;;7345421;19;20324;-84
2022/04/03 03:36:52;;;;;;;15.13;9.07;;;;;;;;;;7367722;19;20034;-90
2022/04/03 03:39:17;;;;;;;16.25;8.95;;;;;;;;;;7334651;19;20014;-87
2022/04/03 03:41:42;;;;;;;15.07;8.23;;;;;;;;;;7373951;19;20474;-83
2022/04/03 03:44:10;;;;;;;17.00;7.90;;;;;;;;;;7359359;19;20010;-84
2022/04/03 03:46:39;;;;;;;17.40;8.50;;;;;;;;;;7370665;19;20017;-89
2022/04/03 03:49:04;;;;;;;14.32;8.90;;;;;;;;;;7368292;19;20465;-83
2022/04/03 03:51:29;;;;;;;13.80;8.23;;;;;;;;;;7371929;19;20011;-88
2022/04/03 03:53:54;;;;;;;17.85;8.23;;;;;;;;;;7367020;19;20003;-83
2022/04/03 03:56:20;;;;;;;15.77;7.75;;;;;;;;;;7361366;19;20056;-84
2022/04/03 03:58:45;;;;;;;14.25;7.85;;;;;;;;;;7366574;19;20006;-84
2022/04/03 04:01:12;;;;;;;16.02;8.20;;;;;;;;;;7374609;19;20003;-83
2022/04/03 04:03:37;;;;;;;17.02;9.02;;;;;;;;;;7351971;19;20389;-89
2022/04/03 04:06:03;;;;;;;17.35;9.43;;;;;;;;;;7349944;19;20593;-84
2022/04/03 04:08:28;;;;;;;15.75;8.20;;;;;;;;;;7363815;19;20015;-87
2022/04/03 04:10:53;;;;;;;15.73;8.07;;;;;;;;;;7357846;19;20095;-86
2022/04/03 04:13:18;;;;;;;14.30;8.25;;;;;;;;;;7350350;19;20747;-81
2022/04/03 04:15:44;;;;;;;14.52;8.93;;;;;;;;;;7353521;19;20050;-85
2022/04/03 04:18:09;;;;;;;15.32;8.13;;;;;;;;;;7365111;19;20085;-89
2022/04/03 04:20:34;;;;;;;16.67;8.65;;;;;;;;;;7361147;19;20506;-84
2022/04/03 04:22:59;;;;;;;14.60;8.52;;;;;;;;;;7376605;19;20466;-82
2022/04/03 04:25:25;;;;;;;13.13;8.70;;;;;;;;;;7372254;19;20467;-83
2022/04/03 04:27:50;;;;;;;16.60;8.70;;;;;;;;;;7365861;19;20025;-83
2022/04/03 04:30:15;;;;;;;17.70;8.70;;;;;;;;;;7374269;19;20007;-82
2022/04/03 04:32:41;;;;;;;15.40;7.93;;;;;;;;;;7366684;19;20096;-89
2022/04/03 04:35:06;;;;;;;15.77;8.48;;;;;;;;;;7356055;19;20074;-82
2022/04/03 04:37:32;;;;;;;15.82;8.52;;;;;;;;;;7366154;19;19999;-82
2022/04/03 04:39:57;;;;;;;15.38;8.68;;;;;;;;;;7364211;19;20012;-83
2022/04/03 04:42:22;;;;;;;13.45;8.02;;;;;;;;;;7373970;19;20070;-81
2022/04/03 04:44:47;;;;;;;15.05;8.50;;;;;;;;;;7358252;19;20442;-87
2022/04/03 04:47:13;;;;;;;18.92;8.85;;;;;;;;;;7363878;19;20035;-86
2022/04/03 04:49:38;;;;;;;19.33;9.10;;;;;;;;;;7365972;19;19998;-85
2022/04/03 04:52:04;;;;;;;15.80;9.18;;;;;;;;;;7374648;19;20042;-86
2022/04/03 04:54:30;;;;;;;16.38;8.65;;;;;;;;;;7368329;19;20003;-82
2022/04/03 04:56:55;;;;;;;15.65;8.95;;;;;;;;;;7371746;19;20006;-84
2022/04/03 04:59:21;;;;;;;18.60;8.57;;;;;;;;;;7339273;19;20011;-82
2022/04/03 05:01:46;;;;;;;14.48;8.60;;;;;;;;;;7367400;19;20574;-85
2022/04/03 05:04:11;;;;;;;15.43;8.82;;;;;;;;;;7342307;19;20566;-89
2022/04/03 05:06:37;;;;;;;15.32;8.68;;;;;;;;;;7340002;19;20011;-85
2022/04/03 05:09:05;;;;;;;13.50;7.78;;;;;;;;;;7358244;19;20010;-85
2022/04/03 05:11:31;;;;;;;16.02;9.07;;;;;;;;;;7377218;19;20025;-82
2022/04/03 05:13:57;;;;;;;16.77;8.50;;;;;;;;;;7360858;19;19999;-86
2022/04/03 05:16:22;;;;;;;18.02;9.43;;;;;;;;;;7364291;19;20015;-85
2022/04/03 05:18:47;;;;;;;15.85;9.05;;;;;;;;;;7373571;19;20023;-84
2022/04/03 05:21:13;;;;;;;17.13;8.80;;;;;;;;;;7369908;19;20022;-86
2022/04/03 05:23:39;;;;;;;17.90;8.63;;;;;;;;;;7368770;19;20038;-81
2022/04/03 05:26:04;;;;;;;17.38;9.05;;;;;;;;;;7358199;19;20030;-83
2022/04/03 05:28:29;;;;;;;14.35;8.27;;;;;;;;;;7363816;19;20473;-87
2022/04/03 05:30:54;;;;;;;11.82;7.13;;;;;;;;;;7367286;19;20074;-85
2022/04/03 05:33:20;;;;;;;15.65;9.13;;;;;;;;;;7300612;19;20005;-86
2022/04/03 05:35:45;;;;;;;19.92;9.30;;;;;;;;;;7342748;19;20077;-90
2022/04/03 05:38:11;;;;;;;18.23;10.45;;;;;;;;;;7359063;19;20022;-85
2022/04/03 05:40:36;;;;;;;15.55;9.13;;;;;;;;;;7342014;19;20002;-83
2022/04/03 05:43:01;;;;;;;14.15;8.55;;;;;;;;;;7353570;19;20059;-86
2022/04/03 05:45:27;;;;;;;25.48;12.05;;;;;;;;;;7330121;19;20014;-86
2022/04/03 05:47:52;;;;;;;18.15;10.32;;;;;;;;;;7358137;19;20141;-84
2022/04/03 05:50:19;;;;;;;25.27;11.75;;;;;;;;;;7346922;19;20007;-86
2022/04/03 05:52:51;;;;;;;23.85;13.27;;;;;;;;;;7346860;19;20454;-89
2022/04/03 05:55:17;;;;;;;16.83;10.60;;;;;;;;;;7365676;19;20462;-87
2022/04/03 05:57:43;;;;;;;17.77;11.10;;;;;;;;;;7358193;19;20344;-87
2022/04/03 06:00:12;;;;;;;26.15;10.73;;;;;;;;;;7346022;19;20090;-85
2022/04/03 06:02:48;;;;;;;17.88;9.95;;;;;;;;;;7357009;19;20437;-84
2022/04/03 06:05:13;;;;;;;18.30;10.48;;;;;;;;;;7373704;19;20100;-81
2022/04/03 06:07:39;;;;;;;22.92;10.65;;;;;;;;;;7340288;19;20011;-84
2022/04/03 06:10:04;;;;;;;15.43;9.85;;;;;;;;;;7369115;19;20003;-82
2022/04/03 06:12:29;;;;;;;19.15;10.48;;;;;;;;;;7361393;19;20015;-86
2022/04/03 06:14:55;;;;;;;15.27;9.75;;;;;;;;;;7361680;19;20014;-83
2022/04/03 06:17:20;;;;;;;16.95;10.23;;;;;;;;;;7380620;19;20010;-82
2022/04/03 06:19:45;;;;;;;22.08;11.18;;;;;;;;;;7319625;19;20034;-87
2022/04/03 06:22:10;;;;;;;16.30;9.73;;;;;;;;;;7351841;19;20020;-88
2022/04/03 06:24:35;;;;;;;15.73;9.80;;;;;;;;;;7363440;19;20130;-85
2022/04/03 06:27:00;;;;;;;15.75;9.35;;;;;;;;;;7375113;19;20014;-82
2022/04/03 06:29:26;;;;;;;17.60;10.20;;;;;;;;;;7370133;19;20082;-83
2022/04/03 06:31:51;;;;;;;19.88;9.48;;;;;;;;;;7375900;19;20290;-87
2022/04/03 06:34:16;;;;;;;17.88;9.73;;;;;;;;;;7374270;19;20060;-84
2022/04/03 06:36:41;;;;;;;18.05;9.57;;;;;;;;;;7358494;19;20003;-83
2022/04/03 06:39:06;;;;;;;16.50;9.70;;;;;;;;;;7370312;19;19998;-89
2022/04/03 06:41:32;;;;;;;18.77;9.93;;;;;;;;;;7373496;19;20560;-83
2022/04/03 06:43:58;;;;;;;14.82;9.38;;;;;;;;;;7368195;19;20115;-86
2022/04/03 06:46:24;;;;;;;17.25;9.35;;;;;;;;;;7379643;19;20074;-88
2022/04/03 06:48:49;;;;;;;16.77;9.30;;;;;;;;;;7372933;19;20036;-83
2022/04/03 06:51:14;;;;;;;17.75;9.90;;;;;;;;;;7363240;19;20083;-85
2022/04/03 06:53:39;;;;;;;16.52;8.90;;;;;;;;;;7379703;19;20395;-85
2022/04/03 06:56:05;;;;;;;17.23;9.25;;;;;;;;;;7370078;19;19995;-89
2022/04/03 06:58:30;;;;;;;16.55;9.05;;;;;;;;;;7373709;19;20013;-89
2022/04/03 07:00:55;;;;;;;14.38;7.78;;;;;;;;;;7382595;19;20079;-87
2022/04/03 07:03:20;;;;;;;14.63;7.28;;;;;;;;;;7376949;19;20006;-85
2022/04/03 07:05:45;;;;;;;15.23;7.95;;;;;;;;;;7384183;19;20025;-86
2022/04/03 07:08:11;;;;;;;14.40;7.35;;;;;;;;;;7363766;19;20002;-90
2022/04/03 07:10:36;;;;;;;14.13;7.78;;;;;;;;;;7381963;19;20038;-89
2022/04/03 07:13:02;;;;;;;15.27;7.80;;;;;;;;;;7375924;19;20018;-89
2022/04/03 07:15:27;;;;;;;17.92;7.35;;;;;;;;;;7382470;19;20021;-87
2022/04/03 07:17:52;;;;;;;17.25;8.30;;;;;;;;;;7380196;19;20006;-88
2022/04/03 07:20:17;;;;;;;12.15;7.93;;;;;;;;;;7381168;19;19998;-89
2022/04/03 07:22:43;;;;;;;12.23;7.40;;;;;;;;;;7388878;19;20038;-88
2022/04/03 07:25:09;;;;;;;15.75;6.50;;;;;;;;;;7384650;19;20014;-92
2022/04/03 07:27:34;;;;;;;12.23;6.22;;;;;;;;;;7372727;19;19999;-92
2022/04/03 07:29:59;;;;;;;13.73;6.43;;;;;;;;;;7355992;19;20010;-88
2022/04/03 07:32:25;;;;;;;12.70;6.40;;;;;;;;;;7383122;19;20036;-88
2022/04/03 07:34:50;;;;;;;13.07;6.25;;;;;;;;;;7387941;19;20606;-88
2022/04/03 07:37:15;;;;;;;11.68;6.13;;;;;;;;;;7378179;19;20006;-88
2022/04/03 07:39:40;;;;;;;14.15;7.03;;;;;;;;;;7384554;19;20473;-89
2022/04/03 07:42:06;;;;;;;12.52;6.65;;;;;;;;;;7383131;19;19994;-92
2022/04/03 07:44:31;;;;;;;14.68;7.50;;;;;;;;;;7367182;19;20006;-92
2022/04/03 07:46:56;;;;;;;12.15;6.18;;;;;;;;;;7379327;19;20090;-88
2022/04/03 07:49:22;;;;;;;14.73;7.28;;;;;;;;;;7385521;19;20348;-94
2022/04/03 07:51:47;;;;;;;12.65;6.78;;;;;;;;;;7385288;19;20018;-88
2022/04/03 07:54:14;;;;;;;11.13;6.28;;;;;;;;;;7383135;19;20003;-90
2022/04/03 07:56:39;;;;;;;15.60;7.10;;;;;;;;;;7385162;19;20010;-91
2022/04/03 07:59:06;;;;;;;13.80;6.25;;;;;;;;;;7370624;19;20006;-88
2022/04/03 08:01:31;;;;;;;14.27;7.07;;;;;;;;;;7389755;19;19998;-89
2022/04/03 08:03:56;;;;;;;13.07;6.95;;;;;;;;;;7384461;19;20006;-89
2022/04/03 08:06:22;;;;;;;14.15;6.50;;;;;;;;;;7386568;19;20470;-87
2022/04/03 08:08:47;;;;;;;10.90;6.53;;;;;;;;;;7375793;19;19999;-88
2022/04/03 08:11:12;;;;;;;15.75;7.07;;;;;;;;;;7386889;19;20797;-87
2022/04/03 08:13:37;;;;;;;11.75;7.25;;;;;;;;;;7367214;19;20015;-93
2022/04/03 08:16:03;;;;;;;13.30;6.10;;;;;;;;;;7369225;19;19998;-87
2022/04/03 08:18:28;;;;;;;10.43;5.80;;;;;;;;;;7387153;19;20025;-90
2022/04/03 08:20:53;;;;;;;10.05;5.20;;;;;;;;;;7380797;19;20006;-89
2022/04/03 08:23:19;;;;;;;11.40;5.22;;;;;;;;;;7384049;19;20544;-88
2022/04/03 08:25:45;;;;;;;10.27;5.25;;;;;;;;;;7374615;19;20002;-88
2022/04/03 08:28:10;;;;;;;11.55;5.88;;;;;;;;;;7371181;19;20034;-87
2022/04/03 08:30:36;;;;;;;11.30;5.47;;;;;;;;;;7369479;19;20359;-91
2022/04/03 08:33:04;;;;;;;11.60;5.53;;;;;;;;;;7383094;19;20006;-88
2022/04/03 08:35:31;;;;;;;9.73;5.47;;;;;;;;;;7390669;19;19995;-87
2022/04/03 08:37:57;;;;;;;10.55;5.93;;;;;;;;;;7378917;19;20039;-88
2022/04/03 08:40:23;;;;;;;10.30;5.72;;;;;;;;;;7374085;19;20254;-90
2022/04/03 08:42:52;;;;;;;10.35;5.68;;;;;;;;;;7366810;19;20391;-91
2022/04/03 08:45:17;;;;;;;10.13;5.65;;;;;;;;;;7370969;19;19998;-87
2022/04/03 08:47:44;;;;;;;9.88;5.47;;;;;;;;;;7381832;19;20320;-90
2022/04/03 08:50:10;;;;;;;10.43;5.40;;;;;;;;;;7383578;19;20379;-87
2022/04/03 08:52:36;;;;;;;10.15;5.15;;;;;;;;;;7383705;19;20038;-87
2022/04/03 08:55:02;;;;;;;8.80;4.57;;;;;;;;;;7361619;19;20107;-88
2022/04/03 08:57:28;;;;;;;9.55;5.18;;;;;;;;;;7378237;19;20039;-89
2022/04/03 08:59:53;;;;;;;8.65;4.50;;;;;;;;;;7376936;19;20018;-90
2022/04/03 09:02:19;;;;;;;9.45;4.88;;;;;;;;;;7381585;19;20018;-90
2022/04/03 09:04:44;;;;;;;9.25;4.60;;;;;;;;;;7377509;19;20438;-88
2022/04/03 09:07:15;;;;;;;8.80;4.50;;;;;;;;;;7380748;19;20254;-87
2022/04/03 09:09:40;;;;;;;8.93;4.50;;;;;;;;;;7383581;19;19999;-89
2022/04/03 09:12:13;;;;;;;8.07;4.47;;;;;;;;;;7372840;19;20335;-87
2022/04/03 09:14:48;;;;;;;10.27;5.38;;;;;;;;;;7363154;19;20267;-87
2022/04/03 09:17:31;;;;;;;8.20;3.65;;;;;;;;;;7378722;19;20011;-87
2022/04/03 09:19:59;;;;;;;8.60;4.75;;;;;;;;;;7378688;19;20018;-87
2022/04/03 09:22:28;;;;;;;10.00;4.15;;;;;;;;;;7372765;19;20017;-90
2022/04/03 09:24:55;;;;;;;6.72;3.50;;;;;;;;;;7375991;19;20308;-90
2022/04/03 09:27:20;;;;;;;7.53;3.72;;;;;;;;;;7377049;19;20097;-88
2022/04/03 09:29:45;;;;;;;6.63;3.33;;;;;;;;;;7367358;19;20074;-87
2022/04/03 09:32:11;;;;;;;8.00;4.13;;;;;;;;;;7378163;19;20014;-85
2022/04/03 09:34:38;;;;;;;12.93;6.68;;;;;;;;;;7375768;19;19998;-87
2022/04/03 09:37:06;;;;;;;10.60;5.63;;;;;;;;;;7375445;19;20015;-87
2022/04/03 09:39:32;;;;;;;9.05;4.75;;;;;;;;;;7372195;19;20478;-89
2022/04/03 09:42:01;;;;;;;10.70;5.43;;;;;;;;;;7367627;19;20010;-94
2022/04/03 09:44:33;;;;;;;8.57;4.00;;;;;;;;;;7376057;19;20003;-87
2022/04/03 09:47:11;;;;;;;6.78;4.15;;;;;;;;;;7380665;19;20018;-88
2022/04/03 09:49:37;;;;;;;8.65;4.03;;;;;;;;;;7374391;19;20058;-92
2022/04/03 09:52:03;;;;;;;5.97;3.10;;;;;;;;;;7382675;19;20019;-91
2022/04/03 09:54:28;;;;;;;6.97;3.53;;;;;;;;;;7378731;19;20007;-92
2022/04/03 09:56:53;;;;;;;8.50;4.10;;;;;;;;;;7381675;19;20625;-87
2022/04/03 09:59:19;;;;;;;6.33;3.17;;;;;;;;;;7367987;19;19998;-88
2022/04/03 10:01:44;;;;;;;9.00;3.67;;;;;;;;;;7382377;19;20271;-90
2022/04/03 10:04:11;;;;;;;7.78;3.90;;;;;;;;;;7381396;19;20010;-86
2022/04/03 10:06:38;;;;;;;6.93;3.50;;;;;;;;;;7384355;19;20014;-90
2022/04/03 10:09:03;;;;;;;9.57;3.72;;;;;;;;;;7368949;19;20009;-91
2022/04/03 10:11:29;;;;;;;7.38;3.55;;;;;;;;;;7375225;19;20049;-86
2022/04/03 10:13:55;;;;;;;9.07;4.15;;;;;;;;;;7354391;19;20584;-89
2022/04/03 10:16:20;;;;;;;8.75;4.50;;;;;;;;;;7370119;19;20014;-88
2022/04/03 10:18:46;;;;;;;7.43;4.43;;;;;;;;;;7362367;19;20033;-92
2022/04/03 10:21:17;;;;;;;8.27;4.20;;;;;;;;;;7379769;19;20318;-88
2022/04/03 10:23:44;;;;;;;9.80;4.25;;;;;;;;;;7368247;19;20293;-86
2022/04/03 10:26:11;;;;;;;9.77;4.00;;;;;;;;;;7376495;19;20011;-87
2022/04/03 10:28:38;;;;;;;8.55;4.22;;;;;;;;;;7365682;19;20011;-90
2022/04/03 10:31:07;;;;;;;7.10;4.00;;;;;;;;;;7377540;19;20023;-86
2022/04/03 10:33:37;;;;;;;6.88;3.50;;;;;;;;;;7368917;19;19994;-89
2022/04/03 10:36:10;;;;;;;7.68;3.85;;;;;;;;;;7382453;19;20010;-87
2022/04/03 10:38:35;;;;;;;7.93;3.97;;;;;;;;;;7380903;19;20034;-86
2022/04/03 10:41:00;;;;;;;6.68;3.67;;;;;;;;;;7386051;19;20476;-87
2022/04/03 10:43:27;;;;;;;9.80;4.20;;;;;;;;;;7359746;19;20107;-87
2022/04/03 10:45:52;;;;;;;11.77;4.47;;;;;;;;;;7369537;19;20018;-88
2022/04/03 10:48:20;;;;;;;7.40;3.85;;;;;;;;;;7380958;19;19998;-87
2022/04/03 10:51:09;;;;;;;8.13;4.50;;;;;;;;;;7379687;19;20010;-89
2022/04/03 10:53:37;;;;;;;9.52;4.22;;;;;;;;;;7380914;19;20019;-86
2022/04/03 10:56:08;;;;;;;7.90;4.22;;;;;;;;;;7373326;19;19998;-91
2022/04/03 10:58:37;;;;;;;7.57;3.85;;;;;;;;;;7376074;19;20066;-88
2022/04/03 11:01:03;;;;;;;6.13;3.25;;;;;;;;;;7385084;19;20077;-86
2022/04/03 11:03:28;;;;;;;8.68;4.20;;;;;;;;;;7380283;19;20036;-88
2022/04/03 11:05:53;;;;;;;9.07;4.43;;;;;;;;;;7383458;19;20002;-86
2022/04/03 11:08:39;;;;;;;7.32;3.58;;;;;;;;;;7379148;19;20007;-92
2022/04/03 11:11:08;;;;;;;8.93;3.85;;;;;;;;;;7387013;19;20042;-86
2022/04/03 11:13:33;;;;;;;9.15;4.40;;;;;;;;;;7365178;19;20289;-92
2022/04/03 11:16:04;;;;;;;7.83;4.27;;;;;;;;;;7385286;19;20462;-85
2022/04/03 11:18:42;;;;;;;7.80;4.28;;;;;;;;;;7381436;19;20710;-88
2022/04/03 11:21:10;;;;;;;8.35;3.92;;;;;;;;;;7385641;19;19998;-85
2022/04/03 11:23:36;;;;;;;8.93;4.47;;;;;;;;;;7378228;19;20027;-86
2022/04/03 11:26:02;;;;;;;8.23;3.83;;;;;;;;;;7385732;19;20006;-86
2022/04/03 11:28:28;;;;;;;10.52;4.80;;;;;;;;;;7368509;19;20003;-88
2022/04/03 11:30:53;;;;;;;9.38;5.07;;;;;;;;;;7380706;19;20007;-86
2022/04/03 11:33:18;;;;;;;8.60;4.93;;;;;;;;;;7383218;19;20018;-92
2022/04/03 11:35:45;;;;;;;10.32;4.88;;;;;;;;;;7369709;19;20009;-85
2022/04/03 11:38:10;;;;;;;10.73;5.20;;;;;;;;;;7380205;19;20539;-86
2022/04/03 11:40:35;;;;;;;10.00;5.63;;;;;;;;;;7377492;19;20040;-86
2022/04/03 11:43:09;;;;;;;12.75;5.45;;;;;;;;;;7360256;19;20011;-85
2022/04/03 11:45:34;;;;;;;12.02;5.18;;;;;;;;;;7365766;19;20033;-89
2022/04/03 11:48:15;;;;;;;9.73;5.25;;;;;;;;;;7380587;19;20010;-90
2022/04/03 11:50:40;;;;;;;9.75;5.50;;;;;;;;;;7378376;19;20076;-90
2022/04/03 11:53:09;;;;;;;10.65;4.93;;;;;;;;;;7384059;19;20018;-87
2022/04/03 11:55:35;;;;;;;8.05;4.85;;;;;;;;;;7374384;19;20005;-92
2022/04/03 11:58:03;;;;;;;8.07;4.55;;;;;;;;;;7331966;19;20835;-90
2022/04/03 12:00:30;;;;;;;10.02;5.30;;;;;;;;;;7389358;19;20003;-85
2022/04/03 12:02:58;;;;;;;10.25;4.63;;;;;;;;;;7376519;19;20014;-87
2022/04/03 12:05:23;;;;;;;8.73;4.82;;;;;;;;;;7382876;19;20062;-89
2022/04/03 12:07:52;;;;;;;9.23;5.15;;;;;;;;;;7371018;19;20487;-86
2022/04/03 12:10:27;;;;;;;8.20;4.40;;;;;;;;;;7364381;19;20021;-91
2022/04/03 12:12:54;;;;;;;9.10;4.50;;;;;;;;;;7371132;19;20080;-89
2022/04/03 12:15:19;;;;;;;12.65;4.63;;;;;;;;;;7354697;19;20599;-89
2022/04/03 12:17:45;;;;;;;8.98;4.13;;;;;;;;;;7378503;19;19994;-88
2022/04/03 12:20:12;;;;;;;10.27;4.90;;;;;;;;;;7373894;19;20758;-85
2022/04/03 12:22:40;;;;;;;7.72;4.75;;;;;;;;;;7381379;19;20032;-85
2022/04/03 12:25:05;;;;;;;9.35;4.28;;;;;;;;;;7363715;19;20021;-89
2022/04/03 12:27:33;;;;;;;8.88;4.88;;;;;;;;;;7378311;19;20010;-89
2022/04/03 12:29:58;;;;;;;10.85;4.88;;;;;;;;;;7369615;19;20015;-92
2022/04/03 12:32:26;;;;;;;8.20;4.93;;;;;;;;;;7383292;19;20398;-88
2022/04/03 12:34:52;;;;;;;8.32;4.68;;;;;;;;;;7363469;19;20272;-91
2022/04/03 12:37:18;;;;;;;11.45;5.40;;;;;;;;;;7375335;19;20034;-89
2022/04/03 12:39:49;;;;;;;10.57;5.65;;;;;;;;;;7371162;19;20114;-88
2022/04/03 12:42:17;;;;;;;8.82;4.78;;;;;;;;;;7377228;19;19994;-86
2022/04/03 12:44:53;;;;;;;10.68;5.35;;;;;;;;;;7362218;19;19998;-89
2022/04/03 12:47:19;;;;;;;9.32;4.72;;;;;;;;;;7376000;19;20007;-88
2022/04/03 12:50:11;;;;;;;10.75;4.85;;;;;;;;;;7367808;19;20609;-87
2022/04/03 12:52:40;;;;;;;8.40;4.93;;;;;;;;;;7372358;19;20078;-89
2022/04/03 12:55:21;;;;;;;9.25;5.03;;;;;;;;;;7352471;19;20336;-86
2022/04/03 13:00:30;;;;;;;6.57;4.25;;;;;;;;;;7367752;19;20038;-87
2022/04/03 13:02:56;;;;;;;9.13;4.97;;;;;;;;;;7376298;19;20463;-94
2022/04/03 13:05:21;;;;;;;8.20;4.78;;;;;;;;;;7373948;19;20280;-89
2022/04/03 13:07:46;;;;;;;8.90;5.05;;;;;;;;;;7376169;19;20031;-90
2022/04/03 13:10:19;;;;;;;9.93;5.27;;;;;;;;;;7365172;19;19999;-85
2022/04/03 13:12:50;;;;;;;11.35;5.18;;;;;;;;;;7374296;19;20290;-90
2022/04/03 13:15:16;;;;;;;8.15;4.75;;;;;;;;;;7358130;19;20506;-87
2022/04/03 13:17:41;;;;;;;8.55;4.90;;;;;;;;;;7372295;19;20018;-87
2022/04/03 13:20:07;;;;;;;7.15;4.50;;;;;;;;;;7370119;19;20703;-85
2022/04/03 13:22:32;;;;;;;8.30;4.95;;;;;;;;;;7366327;19;19998;-90
2022/04/03 13:24:58;;;;;;;9.30;4.95;;;;;;;;;;7372973;19;20007;-90
2022/04/03 13:27:24;;;;;;;9.07;5.50;;;;;;;;;;7369414;19;20022;-87
2022/04/03 13:29:49;;;;;;;8.15;4.85;;;;;;;;;;7350821;19;20087;-86
2022/04/03 13:32:20;;;;;;;10.67;5.30;;;;;;;;;;7354330;19;20011;-92
2022/04/03 13:34:46;;;;;;;9.55;5.85;;;;;;;;;;7350738;19;20267;-84
2022/04/03 13:37:11;;;;;;;9.02;5.05;;;;;;;;;;7384367;19;20001;-86
2022/04/03 13:39:36;;;;;;;8.85;5.60;;;;;;;;;;7363267;19;20019;-87
2022/04/03 13:42:06;;;;;;;9.98;4.75;;;;;;;;;;7377571;19;20028;-86
2022/04/03 13:44:32;;;;;;;10.88;5.00;;;;;;;;;;7369293;19;20326;-86
2022/04/03 13:46:57;;;;;;;8.82;4.20;;;;;;;;;;7367963;19;20062;-91
2022/04/03 13:49:24;;;;;;;7.65;5.05;;;;;;;;;;7355553;19;20042;-86
2022/04/03 13:51:50;;;;;;;8.48;3.75;;;;;;;;;;7369488;19;20023;-85
2022/04/03 13:54:15;;;;;;;7.93;4.25;;;;;;;;;;7364315;19;20229;-83
2022/04/03 13:56:40;;;;;;;8.60;4.13;;;;;;;;;;7351193;19;20386;-90
2022/04/03 13:59:05;;;;;;;6.55;3.83;;;;;;;;;;7359621;19;20379;-84
2022/04/03 14:01:31;;;;;;;10.55;4.25;;;;;;;;;;7362317;19;20011;-88
2022/04/03 14:03:56;;;;;;;8.10;4.88;;;;;;;;;;7363561;19;20100;-88
2022/04/03 14:06:22;;;;;;;7.18;4.05;;;;;;;;;;7366743;19;20023;-86
2022/04/03 14:08:47;;;;;;;7.03;4.18;;;;;;;;;;7355499;19;20014;-87
2022/04/03 14:11:13;;;;;;;8.18;4.25;;;;;;;;;;7367679;19;20913;-88
2022/04/03 14:13:38;;;;;;;7.05;4.30;;;;;;;;;;7348523;19;20001;-85
2022/04/03 14:16:07;;;;;;;11.57;5.05;;;;;;;;;;7367248;19;20887;-85
2022/04/03 14:18:32;;;;;;;8.02;4.35;;;;;;;;;;7362637;19;20495;-85
2022/04/03 14:20:58;;;;;;;10.82;5.53;;;;;;;;;;7367717;19;20049;-91
2022/04/03 14:23:26;;;;;;;10.90;4.90;;;;;;;;;;7340738;19;20014;-84
2022/04/03 14:25:52;;;;;;;8.38;4.05;;;;;;;;;;7370236;19;20038;-84
2022/04/03 14:28:17;;;;;;;14.35;6.53;;;;;;;;;;7371046;19;20010;-88
2022/04/03 14:30:43;;;;;;;14.23;6.13;;;;;;;;;;7379842;19;20034;-86